Washington, District of Columbia
Traffic Map
Current Weather Conditions
Washington, District of Columbia
Broken Clouds
Broken Clouds
26°
Feels Like: 26°
Wind Chill: 26° Ceiling: 6000
Heat Index: 26° Visibility: 10mi
Dew Point: 12° Wind: 5mph
Humidity: 42% Direction: ° ()
Pressure: 30.1in Gusts: 0mph
Raw Report DataKDCA 271852Z VRB04KT 10SM BKN060 BKN250 26/12 A3010 RMK AO2 SLP191 T02610122
Traffic Incident Summary
Active as of:
Severity:
Category:
InformationThere was an issue retrieving the traffic information for this location. Please try a different location or try again shortly.
Advertisements
Track Severe Weather on mobile